Time;durP1;ratioP1;P1;durP2;ratioP2;P2;SDS_P1;SDS_P2;PMS_P1;PMS_P2;Temp;Humidity;BMP_temperature;BMP_pressure;BME280_temperature;BME280_humidity;BME280_pressure;Samples;Min_cycle;Max_cycle;Signal;HPM_P1;HPM_P2
2023/09/06 00:01:16;;;;;;;0.00;0.00;;;22.70;96.30;;;;;;5042937;28;20524;-75
2023/09/06 00:03:42;;;;;;;0.00;0.00;;;22.70;96.60;;;;;;5046469;28;20507;-76
2023/09/06 00:06:08;;;;;;;0.00;0.00;;;22.60;96.80;;;;;;5040888;28;20040;-76
2023/09/06 00:08:33;;;;;;;6.53;4.82;;;22.60;96.70;;;;;;5042940;28;20021;-78
2023/09/06 00:11:06;;;;;;;0.00;0.00;;;22.50;96.90;;;;;;5043266;28;20037;-76
2023/09/06 00:13:33;;;;;;;0.00;0.00;;;22.50;97.10;;;;;;5042255;28;20028;-75
2023/09/06 00:16:03;;;;;;;0.00;0.00;;;22.40;96.90;;;;;;5040310;28;20048;-75
2023/09/06 00:18:30;;;;;;;0.88;0.57;;;22.40;96.90;;;;;;5043364;28;20025;-75
2023/09/06 00:20:57;;;;;;;0.22;0.22;;;22.50;96.50;;;;;;5042762;28;20108;-75
2023/09/06 00:23:24;;;;;;;0.00;0.00;;;22.50;96.50;;;;;;5039426;28;20033;-76
2023/09/06 00:25:52;;;;;;;0.00;0.00;;;22.50;96.40;;;;;;5041605;28;20040;-75
2023/09/06 00:28:19;;;;;;;0.10;0.10;;;22.40;96.60;;;;;;5042551;28;20057;-76
2023/09/06 00:30:45;;;;;;;0.00;0.00;;;22.30;97.10;;;;;;5042971;28;20519;-77
2023/09/06 00:33:11;;;;;;;0.00;0.00;;;22.30;97.00;;;;;;5040640;28;20459;-76
2023/09/06 00:35:41;;;;;;;0.00;0.00;;;22.20;97.50;;;;;;5036579;28;20049;-75
2023/09/06 00:38:07;;;;;;;0.00;0.00;;;22.20;97.00;;;;;;5042473;28;20068;-76
2023/09/06 00:40:37;;;;;;;0.00;0.00;;;22.30;96.90;;;;;;5041963;28;20415;-76
2023/09/06 00:43:04;;;;;;;0.00;0.00;;;22.20;97.10;;;;;;5041541;28;20131;-75
2023/09/06 00:45:38;;;;;;;0.20;0.20;;;22.10;97.30;;;;;;5040858;28;20376;-76
2023/09/06 00:48:05;;;;;;;0.00;0.00;;;22.20;97.00;;;;;;5042107;28;20025;-76
2023/09/06 00:50:34;;;;;;;0.10;0.10;;;22.20;96.70;;;;;;5041851;28;20037;-76
2023/09/06 00:53:01;;;;;;;0.00;0.00;;;22.20;96.50;;;;;;5039670;28;20024;-76
2023/09/06 00:55:26;;;;;;;;;;;22.30;96.40;;;;;;5041100;28;20116;-74
2023/09/06 00:57:53;;;;;;;0.00;0.00;;;22.30;96.20;;;;;;5042229;28;20342;-75
2023/09/06 01:00:20;;;;;;;0.00;0.00;;;22.30;96.00;;;;;;5042245;28;20153;-75
2023/09/06 01:02:47;;;;;;;0.20;0.20;;;22.40;95.50;;;;;;5041354;28;20025;-75
2023/09/06 01:05:14;;;;;;;;;;;22.50;94.50;;;;;;5041221;28;20451;-74
2023/09/06 01:07:40;;;;;;;0.00;0.00;;;22.40;94.30;;;;;;5041554;28;19909;-77
2023/09/06 01:10:07;;;;;;;0.00;0.00;;;22.30;94.90;;;;;;5042037;28;20045;-75
2023/09/06 01:12:35;;;;;;;0.00;0.00;;;22.10;95.90;;;;;;5041849;28;20053;-75
2023/09/06 01:15:05;;;;;;;0.00;0.00;;;21.90;96.00;;;;;;5039433;28;20055;-76
2023/09/06 01:17:34;;;;;;;0.00;0.00;;;21.90;96.00;;;;;;5042320;28;20491;-76
2023/09/06 01:20:38;;;;;;;0.00;0.00;;;21.80;96.50;;;;;;5036322;28;20138;-76
2023/09/06 01:23:27;;;;;;;0.00;0.00;;;21.80;96.60;;;;;;5038540;28;20037;-75
2023/09/06 01:25:54;;;;;;;2.63;2.35;;;21.80;96.00;;;;;;5040033;28;20110;-76
2023/09/06 01:28:20;;;;;;;16.35;3.50;;;21.90;94.90;;;;;;5041402;28;20983;-75
2023/09/06 01:30:46;;;;;;;0.00;0.00;;;22.00;93.30;;;;;;5041390;28;20033;-75
2023/09/06 01:33:16;;;;;;;0.00;0.00;;;22.30;90.30;;;;;;5041213;28;20114;-74
2023/09/06 01:35:41;;;;;;;0.00;0.00;;;22.30;87.80;;;;;;5036385;28;20318;-76
2023/09/06 01:38:07;;;;;;;0.27;0.27;;;22.40;85.90;;;;;;5041767;28;20025;-75
2023/09/06 01:40:33;;;;;;;0.00;0.00;;;22.20;90.00;;;;;;5041676;28;20116;-77
2023/09/06 01:42:58;;;;;;;0.00;0.00;;;22.00;91.80;;;;;;5041686;28;20104;-76
2023/09/06 01:45:24;;;;;;;0.00;0.00;;;21.90;93.20;;;;;;5040834;28;20029;-75
2023/09/06 01:47:50;;;;;;;0.00;0.00;;;21.70;94.60;;;;;;5040695;28;20551;-75
2023/09/06 01:50:19;;;;;;;0.00;0.00;;;21.60;95.80;;;;;;5041111;28;20523;-74
2023/09/06 01:52:46;;;;;;;0.00;0.00;;;21.40;96.90;;;;;;5041326;28;20083;-75
2023/09/06 01:55:12;;;;;;;0.10;0.10;;;21.40;97.40;;;;;;5043158;28;20037;-74
2023/09/06 01:57:37;;;;;;;0.00;0.00;;;21.30;97.50;;;;;;5045290;28;20017;-76
2023/09/06 02:02:48;;;;;;;0.00;0.00;;;21.30;97.90;;;;;;5038100;28;21221;-75
2023/09/06 02:05:13;;;;;;;0.00;0.00;;;21.30;98.10;;;;;;5043294;28;20629;-75
2023/09/06 02:07:39;;;;;;;4.60;2.10;;;21.20;98.20;;;;;;5044581;28;20040;-74
2023/09/06 02:10:05;;;;;;;3.63;2.50;;;21.20;98.30;;;;;;5045164;28;20091;-75
2023/09/06 02:12:31;;;;;;;0.00;0.00;;;21.20;98.40;;;;;;5044739;28;20479;-74
2023/09/06 02:14:57;;;;;;;0.00;0.00;;;21.20;98.60;;;;;;5044021;28;20765;-75
2023/09/06 02:17:29;;;;;;;0.00;0.00;;;21.00;99.10;;;;;;5043440;28;20140;-75
2023/09/06 02:19:55;;;;;;;0.00;0.00;;;21.10;99.20;;;;;;5045077;28;20119;-75
2023/09/06 02:22:20;;;;;;;0.00;0.00;;;21.00;99.30;;;;;;5044403;28;20116;-74
2023/09/06 02:24:46;;;;;;;0.00;0.00;;;21.10;98.80;;;;;;5042557;28;20543;-75
2023/09/06 02:27:13;;;;;;;0.00;0.00;;;21.10;98.80;;;;;;5044701;28;20403;-74
2023/09/06 02:29:40;;;;;;;0.00;0.00;;;21.00;98.90;;;;;;5044833;28;20614;-74
2023/09/06 02:32:06;;;;;;;0.00;0.00;;;21.00;99.00;;;;;;5040746;28;20162;-74
2023/09/06 02:34:33;;;;;;;0.00;0.00;;;20.90;99.20;;;;;;5043315;28;20057;-74
2023/09/06 02:36:59;;;;;;;0.10;0.10;;;20.90;99.40;;;;;;5043794;28;20029;-74
2023/09/06 02:39:27;;;;;;;0.00;0.00;;;20.80;99.60;;;;;;5055409;28;20507;-76
2023/09/06 02:41:53;;;;;;;0.00;0.00;;;20.80;99.60;;;;;;5045228;28;20021;-74
2023/09/06 02:44:19;;;;;;;0.00;0.00;;;20.80;99.60;;;;;;5045318;28;20052;-74
2023/09/06 02:46:45;;;;;;;0.00;0.00;;;20.80;99.90;;;;;;5044890;28;20025;-74
2023/09/06 02:49:13;;;;;;;0.00;0.00;;;20.70;99.90;;;;;;5043895;28;20051;-74
2023/09/06 02:51:43;;;;;;;0.00;0.00;;;20.70;99.90;;;;;;5044449;28;20529;-74
2023/09/06 02:54:09;;;;;;;0.00;0.00;;;20.80;99.90;;;;;;5044511;28;20033;-74
2023/09/06 02:56:37;;;;;;;0.00;0.00;;;20.70;99.90;;;;;;5044993;28;20029;-74
2023/09/06 02:59:07;;;;;;;0.00;0.00;;;20.70;99.90;;;;;;5043986;28;20029;-75
2023/09/06 03:01:38;;;;;;;0.00;0.00;;;20.60;99.90;;;;;;5043505;28;20508;-75
2023/09/06 03:04:06;;;;;;;0.00;0.00;;;20.60;99.90;;;;;;5043437;28;20032;-74
2023/09/06 03:06:33;;;;;;;0.00;0.00;;;20.60;99.90;;;;;;5043395;28;20025;-74
2023/09/06 03:09:00;;;;;;;0.00;0.00;;;20.50;99.90;;;;;;5043957;28;20033;-73
2023/09/06 03:11:26;;;;;;;0.00;0.00;;;20.50;99.90;;;;;;5044442;28;20044;-75
2023/09/06 03:13:55;;;;;;;0.00;0.00;;;20.50;99.90;;;;;;5041920;28;20118;-75
2023/09/06 03:16:22;;;;;;;2.42;1.40;;;20.60;99.90;;;;;;5043731;28;20043;-74
2023/09/06 03:18:53;;;;;;;0.00;0.00;;;20.60;99.90;;;;;;5042308;28;20029;-74
2023/09/06 03:21:18;;;;;;;3.92;3.60;;;20.60;99.90;;;;;;5042674;28;20688;-76
2023/09/06 03:23:45;;;;;;;0.00;0.00;;;20.50;99.90;;;;;;5044141;28;20048;-73
2023/09/06 03:26:12;;;;;;;0.00;0.00;;;20.50;99.90;;;;;;5043784;28;20052;-76
2023/09/06 03:28:41;;;;;;;0.55;0.55;;;20.40;99.90;;;;;;5044194;28;20039;-75
2023/09/06 03:31:13;;;;;;;0.00;0.00;;;20.40;99.90;;;;;;5043826;28;20067;-75
2023/09/06 03:33:41;;;;;;;0.00;0.00;;;20.30;99.90;;;;;;5037478;28;21600;-75
2023/09/06 03:36:08;;;;;;;0.00;0.00;;;20.30;99.90;;;;;;5042959;28;20040;-75
2023/09/06 03:38:36;;;;;;;0.00;0.00;;;20.30;99.90;;;;;;5043654;28;20563;-75
2023/09/06 03:41:07;;;;;;;0.00;0.00;;;20.20;99.90;;;;;;5042570;28;20056;-75
2023/09/06 03:43:33;;;;;;;0.20;0.20;;;20.20;99.90;;;;;;5039018;28;20032;-74
2023/09/06 03:46:07;;;;;;;0.00;0.00;;;20.10;99.90;;;;;;5042988;28;20136;-76
2023/09/06 03:48:33;;;;;;;0.10;0.10;;;20.10;99.90;;;;;;5044179;28;20035;-74
2023/09/06 03:51:02;;;;;;;0.00;0.00;;;20.10;99.90;;;;;;5041241;28;20037;-77
2023/09/06 03:53:29;;;;;;;0.00;0.00;;;20.00;99.90;;;;;;5040071;28;20025;-77
2023/09/06 03:55:57;;;;;;;0.00;0.00;;;20.00;99.90;;;;;;5044110;28;20029;-76
2023/09/06 03:58:29;;;;;;;1.20;1.10;;;20.00;99.90;;;;;;5042600;28;20037;-74
2023/09/06 04:00:55;;;;;;;0.25;0.25;;;20.10;99.90;;;;;;5044377;28;20036;-76
2023/09/06 04:03:22;;;;;;;0.00;0.00;;;20.10;99.90;;;;;;5044292;28;20024;-74
2023/09/06 04:05:48;;;;;;;;;;;20.00;99.90;;;;;;5044878;28;20021;-74
2023/09/06 04:08:17;;;;;;;0.00;0.00;;;20.00;99.90;;;;;;5046101;28;20431;-76
2023/09/06 04:10:44;;;;;;;0.00;0.00;;;20.10;99.90;;;;;;5044063;28;20045;-77
2023/09/06 04:13:11;;;;;;;0.00;0.00;;;20.10;99.90;;;;;;5043627;28;20017;-77
2023/09/06 04:15:38;;;;;;;0.00;0.00;;;20.20;99.90;;;;;;5043876;28;20025;-75
2023/09/06 04:18:06;;;;;;;0.00;0.00;;;20.10;99.90;;;;;;5042480;28;20511;-77
2023/09/06 04:20:37;;;;;;;0.35;0.35;;;20.10;99.90;;;;;;5042447;28;20037;-76
2023/09/06 04:23:05;;;;;;;0.70;0.70;;;20.00;99.90;;;;;;5035609;28;20056;-74
2023/09/06 04:25:33;;;;;;;0.00;0.00;;;19.90;99.90;;;;;;5041844;28;20032;-75
2023/09/06 04:28:00;;;;;;;0.00;0.00;;;20.00;99.90;;;;;;5044846;28;20127;-77
2023/09/06 04:30:32;;;;;;;0.00;0.00;;;19.90;99.90;;;;;;5050438;28;20172;-74
2023/09/06 04:32:57;;;;;;;0.00;0.00;;;19.90;99.90;;;;;;5043344;28;20120;-74
2023/09/06 04:35:34;;;;;;;0.00;0.00;;;19.90;99.90;;;;;;5043182;28;20049;-74
2023/09/06 04:38:02;;;;;;;0.00;0.00;;;19.90;99.90;;;;;;5043521;28;20025;-77
2023/09/06 04:40:31;;;;;;;1.55;1.35;;;19.90;99.90;;;;;;5043680;28;20025;-74
2023/09/06 04:42:57;;;;;;;0.00;0.00;;;19.80;99.90;;;;;;5043338;28;20508;-73
2023/09/06 04:45:23;;;;;;;0.20;0.20;;;19.80;99.90;;;;;;5043063;28;20025;-73
2023/09/06 04:47:49;;;;;;;0.00;0.00;;;19.80;99.90;;;;;;5042675;28;20029;-74
2023/09/06 04:50:15;;;;;;;0.00;0.00;;;19.70;99.90;;;;;;5042684;28;20485;-73
2023/09/06 04:52:45;;;;;;;0.00;0.00;;;19.80;99.90;;;;;;5042873;28;20025;-74
2023/09/06 04:55:14;;;;;;;0.08;0.08;;;19.80;99.90;;;;;;5045533;28;20112;-74
2023/09/06 04:57:41;;;;;;;0.00;0.00;;;19.70;99.90;;;;;;5042573;28;20029;-74
2023/09/06 05:00:18;;;;;;;0.00;0.00;;;19.70;99.90;;;;;;5047167;28;20413;-77
2023/09/06 05:02:45;;;;;;;0.00;0.00;;;19.70;99.90;;;;;;5031138;28;20021;-75
2023/09/06 05:05:13;;;;;;;0.00;0.00;;;19.70;99.90;;;;;;5037855;28;20503;-75
2023/09/06 05:07:39;;;;;;;0.00;0.00;;;19.60;99.90;;;;;;5041862;28;20511;-74
2023/09/06 05:10:05;;;;;;;0.00;0.00;;;19.60;99.90;;;;;;5040565;28;20037;-74
2023/09/06 05:12:30;;;;;;;0.00;0.00;;;19.50;99.90;;;;;;5037935;28;20055;-76
2023/09/06 05:14:56;;;;;;;0.10;0.10;;;19.50;99.90;;;;;;5041126;28;20487;-75
2023/09/06 05:17:23;;;;;;;0.00;0.00;;;19.50;99.90;;;;;;5042391;28;20131;-76
2023/09/06 05:19:51;;;;;;;0.00;0.00;;;19.50;99.90;;;;;;5042475;28;20106;-77
2023/09/06 05:22:17;;;;;;;0.00;0.00;;;19.50;99.90;;;;;;5041234;28;20037;-78
2023/09/06 05:24:43;;;;;;;0.00;0.00;;;19.50;99.90;;;;;;5042865;28;20502;-77
2023/09/06 05:27:09;;;;;;;0.00;0.00;;;19.40;99.90;;;;;;5040427;28;20033;-78
2023/09/06 05:29:34;;;;;;;0.00;0.00;;;19.30;99.90;;;;;;5044916;28;21347;-78
2023/09/06 05:32:00;;;;;;;0.00;0.00;;;19.30;99.90;;;;;;5048512;28;20587;-78
2023/09/06 05:34:29;;;;;;;0.00;0.00;;;19.30;99.90;;;;;;5040920;28;20128;-77
2023/09/06 05:36:55;;;;;;;0.00;0.00;;;19.20;99.90;;;;;;5042686;28;20091;-77
2023/09/06 05:39:21;;;;;;;10.60;2.10;;;19.30;99.90;;;;;;5040070;28;20029;-74
2023/09/06 05:41:47;;;;;;;0.00;0.00;;;19.30;99.90;;;;;;5038817;28;20033;-72
2023/09/06 05:44:13;;;;;;;;;;;19.30;99.90;;;;;;5041695;28;20035;-75
2023/09/06 05:46:39;;;;;;;0.00;0.00;;;19.50;99.90;;;;;;5044343;28;19908;-74
2023/09/06 05:49:08;;;;;;;0.00;0.00;;;19.60;99.90;;;;;;5043901;28;20117;-73
2023/09/06 05:51:34;;;;;;;0.00;0.00;;;19.60;99.90;;;;;;5044337;28;20099;-74
2023/09/06 05:54:00;;;;;;;0.00;0.00;;;19.70;99.90;;;;;;5044589;28;20750;-74
2023/09/06 05:56:26;;;;;;;0.00;0.00;;;19.80;99.90;;;;;;5041234;28;20251;-72
2023/09/06 05:58:52;;;;;;;0.00;0.00;;;19.90;99.90;;;;;;5048283;28;20123;-72
2023/09/06 06:01:18;;;;;;;0.00;0.00;;;20.00;99.90;;;;;;5053023;28;20029;-71
2023/09/06 06:03:44;;;;;;;0.00;0.00;;;20.10;99.90;;;;;;5044651;28;20116;-72
2023/09/06 06:06:16;;;;;;;6.00;1.80;;;20.20;99.90;;;;;;5042772;28;20135;-72
2023/09/06 06:08:42;;;;;;;0.20;0.20;;;20.30;99.90;;;;;;5041724;28;20025;-71
2023/09/06 06:11:08;;;;;;;0.00;0.00;;;20.50;99.90;;;;;;5045581;28;20039;-72
2023/09/06 06:13:34;;;;;;;0.00;0.00;;;20.60;99.90;;;;;;5045144;28;20475;-75
2023/09/06 06:16:00;;;;;;;0.00;0.00;;;20.80;99.90;;;;;;5045210;28;20382;-72
2023/09/06 06:18:26;;;;;;;0.00;0.00;;;21.00;99.90;;;;;;5045155;28;20021;-72
2023/09/06 06:20:52;;;;;;;0.00;0.00;;;21.10;99.40;;;;;;5043453;28;20041;-71
2023/09/06 06:23:18;;;;;;;0.00;0.00;;;21.20;99.20;;;;;;5044683;28;20025;-73
2023/09/06 06:25:44;;;;;;;0.00;0.00;;;21.40;98.90;;;;;;5045198;28;20710;-71
2023/09/06 06:28:09;;;;;;;0.00;0.00;;;21.50;99.00;;;;;;5043964;28;20028;-71
2023/09/06 06:30:35;;;;;;;0.00;0.00;;;21.70;98.50;;;;;;5045626;28;20496;-72
2023/09/06 06:33:01;;;;;;;0.00;0.00;;;22.00;97.40;;;;;;5045272;28;20071;-71
2023/09/06 06:35:27;;;;;;;0.00;0.00;;;22.10;97.50;;;;;;5044747;28;20550;-71
2023/09/06 06:37:53;;;;;;;0.00;0.00;;;22.50;96.50;;;;;;5045353;28;20040;-71
2023/09/06 06:40:18;;;;;;;0.00;0.00;;;22.60;95.70;;;;;;5043714;28;20067;-72
2023/09/06 06:42:47;;;;;;;0.00;0.00;;;22.80;95.20;;;;;;5044971;28;20248;-71
2023/09/06 06:45:13;;;;;;;0.00;0.00;;;23.10;94.10;;;;;;5045094;28;20036;-73
2023/09/06 06:47:38;;;;;;;0.00;0.00;;;23.20;94.50;;;;;;5034695;28;20102;-73
2023/09/06 06:50:06;;;;;;;0.57;0.47;;;23.60;93.30;;;;;;5044801;28;20834;-73
2023/09/06 06:52:36;;;;;;;0.00;0.00;;;23.70;92.50;;;;;;5044889;28;20485;-71
2023/09/06 06:55:03;;;;;;;0.00;0.00;;;23.70;92.10;;;;;;5044840;28;20021;-71
2023/09/06 06:57:30;;;;;;;0.00;0.00;;;23.90;91.50;;;;;;5044520;28;20053;-71
2023/09/06 06:59:55;;;;;;;0.00;0.00;;;24.10;91.50;;;;;;5044816;28;20681;-72
2023/09/06 07:02:21;;;;;;;0.00;0.00;;;24.70;90.40;;;;;;5045383;28;20040;-71
2023/09/06 07:04:47;;;;;;;0.00;0.00;;;25.30;89.20;;;;;;5044698;28;20330;-71
2023/09/06 07:07:13;;;;;;;0.00;0.00;;;25.00;86.90;;;;;;5044784;28;20044;-72
2023/09/06 07:09:38;;;;;;;0.00;0.00;;;25.10;87.00;;;;;;5044094;28;20025;-74
2023/09/06 07:12:04;;;;;;;0.00;0.00;;;25.40;87.30;;;;;;5044489;28;20082;-72
2023/09/06 07:14:30;;;;;;;0.00;0.00;;;25.80;85.30;;;;;;5044355;28;20300;-72
2023/09/06 07:16:56;;;;;;;0.28;0.17;;;26.30;83.10;;;;;;5044322;28;20025;-72
2023/09/06 07:19:22;;;;;;;0.10;0.10;;;26.40;82.10;;;;;;5044591;28;20515;-71
2023/09/06 07:21:47;;;;;;;0.05;0.05;;;26.60;80.90;;;;;;5044430;28;20407;-71
2023/09/06 07:24:14;;;;;;;0.00;0.00;;;26.70;79.00;;;;;;5044272;28;20056;-74
2023/09/06 07:26:41;;;;;;;0.00;0.00;;;26.90;78.60;;;;;;5043841;28;20462;-73
2023/09/06 07:29:06;;;;;;;0.00;0.00;;;27.00;79.10;;;;;;5042359;28;20029;-72
2023/09/06 07:31:32;;;;;;;2.50;1.17;;;27.40;78.30;;;;;;5044396;28;20464;-72
2023/09/06 07:33:58;;;;;;;0.00;0.00;;;27.20;75.10;;;;;;5043758;28;20048;-72
2023/09/06 07:36:24;;;;;;;0.00;0.00;;;27.50;76.10;;;;;;5043994;28;20037;-72
2023/09/06 07:38:54;;;;;;;0.00;0.00;;;28.10;75.60;;;;;;5044034;28;20024;-71
2023/09/06 07:41:20;;;;;;;0.00;0.00;;;28.30;73.90;;;;;;5043631;28;20435;-73
2023/09/06 07:43:46;;;;;;;0.38;0.25;;;28.30;71.90;;;;;;5041900;28;20028;-72
2023/09/06 07:46:12;;;;;;;0.00;0.00;;;28.50;73.40;;;;;;5043691;28;20488;-73
2023/09/06 07:48:38;;;;;;;0.00;0.00;;;28.90;70.70;;;;;;5042819;28;20197;-73
2023/09/06 07:51:04;;;;;;;;;;;29.00;69.90;;;;;;5044168;28;20045;-73
2023/09/06 07:53:31;;;;;;;0.00;0.00;;;28.90;69.10;;;;;;5043858;28;19908;-74
2023/09/06 07:55:56;;;;;;;0.00;0.00;;;29.00;68.00;;;;;;5043561;28;20086;-71
2023/09/06 07:58:22;;;;;;;0.00;0.00;;;29.30;67.60;;;;;;5044241;28;20707;-71
2023/09/06 08:00:49;;;;;;;;;;;29.90;65.70;;;;;;5044044;28;20078;-75
2023/09/06 08:03:15;;;;;;;0.00;0.00;;;29.80;65.00;;;;;;5044154;28;19952;-72
2023/09/06 08:05:41;;;;;;;0.00;0.00;;;30.30;64.80;;;;;;5043720;28;20072;-71
2023/09/06 08:08:08;;;;;;;;;;;30.40;62.90;;;;;;5035172;28;20029;-71
2023/09/06 08:10:35;;;;;;;0.00;0.00;;;30.70;63.20;;;;;;5043614;28;19917;-72
2023/09/06 08:13:03;;;;;;;0.00;0.00;;;30.80;60.90;;;;;;5043210;28;20028;-71
2023/09/06 08:15:32;;;;;;;0.00;0.00;;;31.10;61.00;;;;;;5043168;28;20021;-72
2023/09/06 08:17:58;;;;;;;0.00;0.00;;;31.40;59.10;;;;;;5041612;28;20056;-74
2023/09/06 08:20:24;;;;;;;;;;;31.60;58.80;;;;;;5043076;28;20032;-72
2023/09/06 08:22:50;;;;;;;0.00;0.00;;;30.50;57.10;;;;;;5047719;28;19944;-72
2023/09/06 08:25:17;;;;;;;;;;;31.20;56.40;;;;;;5043818;28;20438;-71
2023/09/06 08:27:43;;;;;;;0.00;0.00;;;32.00;54.80;;;;;;5043403;28;20368;-73
2023/09/06 08:30:12;;;;;;;;;;;31.30;55.10;;;;;;5043208;28;20039;-74
2023/09/06 08:32:42;;;;;;;0.00;0.00;;;31.10;55.20;;;;;;5043210;28;19971;-75
2023/09/06 08:35:11;;;;;;;0.00;0.00;;;31.30;55.70;;;;;;5043425;28;20049;-75
2023/09/06 08:37:39;;;;;;;0.00;0.00;;;33.00;54.10;;;;;;5044531;28;20049;-75
2023/09/06 08:40:06;;;;;;;0.00;0.00;;;32.60;53.50;;;;;;5044286;28;20017;-74
2023/09/06 08:42:35;;;;;;;0.00;0.00;;;33.10;52.50;;;;;;5043788;28;20484;-72
2023/09/06 08:45:03;;;;;;;0.03;0.03;;;31.60;53.10;;;;;;5044167;28;20025;-72
2023/09/06 08:47:29;;;;;;;0.00;0.00;;;31.80;53.40;;;;;;5043216;28;20899;-72
2023/09/06 08:49:55;;;;;;;;;;;32.40;50.90;;;;;;5043433;28;20036;-74
2023/09/06 08:52:21;;;;;;;0.00;0.00;;;32.70;51.20;;;;;;5043031;28;19909;-71
2023/09/06 08:54:50;;;;;;;0.00;0.00;;;32.50;51.40;;;;;;5041512;28;20025;-72
2023/09/06 08:57:17;;;;;;;0.00;0.00;;;33.20;50.10;;;;;;5042865;28;20039;-72
2023/09/06 08:59:44;;;;;;;0.00;0.00;;;33.60;49.60;;;;;;5043028;28;20132;-71
2023/09/06 09:02:12;;;;;;;0.00;0.00;;;32.90;50.50;;;;;;5042404;28;20025;-75
2023/09/06 09:04:41;;;;;;;0.10;0.10;;;33.10;49.40;;;;;;5042071;28;20072;-74
2023/09/06 09:07:08;;;;;;;0.00;0.00;;;33.20;49.00;;;;;;5042755;28;20021;-71
2023/09/06 09:10:01;;;;;;;0.00;0.00;;;32.50;49.00;;;;;;5043258;28;20033;-72
2023/09/06 09:12:31;;;;;;;0.00;0.00;;;32.90;49.10;;;;;;5042683;28;20021;-73
2023/09/06 09:14:57;;;;;;;0.00;0.00;;;32.90;49.10;;;;;;5040772;28;20136;-71
2023/09/06 09:17:27;;;;;;;0.00;0.00;;;33.40;48.90;;;;;;5042549;28;20021;-73
2023/09/06 09:19:55;;;;;;;0.00;0.00;;;34.00;48.40;;;;;;5042663;28;20021;-75
2023/09/06 09:22:28;;;;;;;0.00;0.00;;;34.90;47.50;;;;;;5042116;28;20490;-73
2023/09/06 09:25:13;;;;;;;0.00;0.00;;;35.50;46.60;;;;;;5042440;28;20107;-71
2023/09/06 09:27:39;;;;;;;0.00;0.00;;;34.90;46.00;;;;;;5040797;28;20025;-72
2023/09/06 09:30:06;;;;;;;;;;;35.20;46.40;;;;;;5042456;28;20569;-73
2023/09/06 09:32:32;;;;;;;0.00;0.00;;;34.30;46.50;;;;;;5041795;28;20360;-71
2023/09/06 09:34:58;;;;;;;;;;;33.90;47.10;;;;;;5041946;28;20053;-74
2023/09/06 09:37:24;;;;;;;0.00;0.00;;;34.70;47.50;;;;;;5042606;28;19909;-73
2023/09/06 09:39:50;;;;;;;;;;;34.70;46.30;;;;;;5042944;28;20467;-72
2023/09/06 09:42:15;;;;;;;0.00;0.00;;;34.70;46.90;;;;;;5042277;28;19908;-72
2023/09/06 09:44:41;;;;;;;;;;;36.40;44.50;;;;;;5042282;28;20029;-72
2023/09/06 09:47:14;;;;;;;0.00;0.00;;;36.10;43.80;;;;;;5042745;28;19909;-72
2023/09/06 09:49:42;;;;;;;0.00;0.00;;;34.80;44.70;;;;;;5042099;28;20033;-71
2023/09/06 09:52:14;;;;;;;0.00;0.00;;;35.20;44.70;;;;;;5041901;28;20175;-72
2023/09/06 09:54:42;;;;;;;0.00;0.00;;;36.40;44.80;;;;;;5041445;28;20136;-72
2023/09/06 09:57:09;;;;;;;0.00;0.00;;;36.00;43.80;;;;;;5041888;28;20055;-73
2023/09/06 09:59:36;;;;;;;0.00;0.00;;;36.00;44.30;;;;;;5042146;28;20029;-72
2023/09/06 10:02:07;;;;;;;0.00;0.00;;;36.30;43.50;;;;;;5040274;28;20033;-75
2023/09/06 10:04:42;;;;;;;2.20;1.45;;;35.50;43.80;;;;;;5041358;28;20028;-72
2023/09/06 10:07:09;;;;;;;0.00;0.00;;;35.00;44.60;;;;;;5042149;28;20187;-73
2023/09/06 10:09:39;;;;;;;0.00;0.00;;;34.50;44.50;;;;;;5040449;28;20964;-74
2023/09/06 10:12:11;;;;;;;0.00;0.00;;;33.60;45.10;;;;;;5040831;28;20025;-71
2023/09/06 10:14:41;;;;;;;0.00;0.00;;;31.90;46.80;;;;;;5041860;28;20025;-72
2023/09/06 10:17:11;;;;;;;0.00;0.00;;;32.40;47.20;;;;;;5045571;28;20067;-71
2023/09/06 10:19:38;;;;;;;0.00;0.00;;;32.60;47.40;;;;;;5045747;28;20087;-72
2023/09/06 10:22:07;;;;;;;0.00;0.00;;;32.30;47.10;;;;;;5045365;28;20840;-74
2023/09/06 10:24:35;;;;;;;0.00;0.00;;;32.40;47.10;;;;;;5045006;28;20446;-72
2023/09/06 10:27:02;;;;;;;0.00;0.00;;;31.90;48.50;;;;;;5045473;28;20021;-72
2023/09/06 10:29:32;;;;;;;22.90;3.50;;;31.10;49.70;;;;;;5045735;28;20096;-73
2023/09/06 10:32:04;;;;;;;0.00;0.00;;;31.50;49.80;;;;;;5043280;28;20488;-71
2023/09/06 10:34:33;;;;;;;0.00;0.00;;;31.50;48.80;;;;;;5042586;28;20084;-72
2023/09/06 10:37:01;;;;;;;0.00;0.00;;;31.20;49.10;;;;;;5044366;28;20431;-74
2023/09/06 10:39:28;;;;;;;0.00;0.00;;;30.90;49.90;;;;;;5045526;28;20024;-72
2023/09/06 10:42:09;;;;;;;0.00;0.00;;;31.00;51.40;;;;;;5045693;28;20108;-76
2023/09/06 10:44:53;;;;;;;0.00;0.00;;;31.20;50.20;;;;;;5045275;28;20176;-71
2023/09/06 10:47:36;;;;;;;0.00;0.00;;;31.30;49.50;;;;;;5045321;28;20032;-73
2023/09/06 10:50:18;;;;;;;0.20;0.20;;;31.20;50.80;;;;;;5043805;28;20037;-72
2023/09/06 10:52:58;;;;;;;0.00;0.00;;;30.70;49.80;;;;;;5041410;28;20033;-74
2023/09/06 10:55:46;;;;;;;0.00;0.00;;;30.60;51.70;;;;;;5042158;28;20106;-75
2023/09/06 10:58:12;;;;;;;0.00;0.00;;;30.90;50.60;;;;;;5044735;28;20032;-72
2023/09/06 11:00:40;;;;;;;0.00;0.00;;;31.20;51.00;;;;;;5044488;28;20644;-74
2023/09/06 11:03:09;;;;;;;0.00;0.00;;;30.20;50.00;;;;;;5043601;28;20025;-73
2023/09/06 11:05:42;;;;;;;0.00;0.00;;;30.00;50.90;;;;;;5045172;28;20052;-75
2023/09/06 11:08:08;;;;;;;0.00;0.00;;;30.20;51.80;;;;;;5044186;28;20361;-72
2023/09/06 11:10:38;;;;;;;0.00;0.00;;;30.60;53.90;;;;;;5044583;28;20065;-73
2023/09/06 11:13:15;;;;;;;0.00;0.00;;;30.50;53.20;;;;;;5043132;28;20116;-74
2023/09/06 11:15:41;;;;;;;0.00;0.00;;;30.40;56.10;;;;;;5044093;28;20027;-72
2023/09/06 11:18:08;;;;;;;0.00;0.00;;;30.70;53.80;;;;;;5044037;28;20032;-71
2023/09/06 11:20:35;;;;;;;0.00;0.00;;;30.70;53.90;;;;;;5044537;28;20025;-73
2023/09/06 11:23:02;;;;;;;0.00;0.00;;;30.40;51.90;;;;;;5043746;28;20373;-72
2023/09/06 11:25:29;;;;;;;0.20;0.20;;;30.40;53.50;;;;;;5044195;28;20024;-72
2023/09/06 11:27:59;;;;;;;0.00;0.00;;;30.10;52.50;;;;;;5044139;28;20029;-74
2023/09/06 11:30:26;;;;;;;0.00;0.00;;;29.80;52.00;;;;;;5042654;28;20037;-75
2023/09/06 11:32:56;;;;;;;0.00;0.00;;;29.50;52.20;;;;;;5042676;28;20028;-71
2023/09/06 11:35:35;;;;;;;0.00;0.00;;;29.80;54.40;;;;;;5042351;28;20881;-73
2023/09/06 11:38:02;;;;;;;0.00;0.00;;;30.00;55.30;;;;;;5043808;28;20116;-72
2023/09/06 11:40:31;;;;;;;0.20;0.20;;;29.80;52.40;;;;;;5044035;28;20810;-72
2023/09/06 11:43:05;;;;;;;0.00;0.00;;;29.70;52.70;;;;;;5043944;28;20021;-72
2023/09/06 11:45:32;;;;;;;0.00;0.00;;;29.70;52.30;;;;;;5042789;28;20033;-72
2023/09/06 11:48:09;;;;;;;0.00;0.00;;;29.50;52.80;;;;;;5043227;28;20021;-71
2023/09/06 11:50:36;;;;;;;0.00;0.00;;;29.50;54.40;;;;;;5043912;28;20033;-73
2023/09/06 11:53:04;;;;;;;0.00;0.00;;;29.70;55.20;;;;;;5043654;28;20025;-71
2023/09/06 11:55:33;;;;;;;0.00;0.00;;;29.70;57.20;;;;;;5043948;28;20128;-75
2023/09/06 11:57:59;;;;;;;0.00;0.00;;;29.60;54.50;;;;;;5043715;28;20033;-71
2023/09/06 12:00:35;;;;;;;0.00;0.00;;;29.40;54.10;;;;;;5042397;28;20039;-75
2023/09/06 12:03:07;;;;;;;;;;;29.40;53.70;;;;;;5043363;28;20032;-71
2023/09/06 12:05:36;;;;;;;0.00;0.00;;;29.30;54.50;;;;;;5042361;28;19904;-73
2023/09/06 12:08:03;;;;;;;0.00;0.00;;;29.20;52.60;;;;;;5043313;28;20025;-72
2023/09/06 12:10:29;;;;;;;0.00;0.00;;;29.10;52.70;;;;;;5043539;28;20045;-74
2023/09/06 12:12:56;;;;;;;0.00;0.00;;;29.10;53.40;;;;;;5043241;28;20035;-73
2023/09/06 12:15:25;;;;;;;0.00;0.00;;;29.10;53.90;;;;;;5042986;28;20781;-73
2023/09/06 12:17:51;;;;;;;0.00;0.00;;;29.10;54.40;;;;;;5042568;28;20480;-73
2023/09/06 12:20:25;;;;;;;0.00;0.00;;;29.10;54.30;;;;;;5043432;28;20068;-72
2023/09/06 12:22:52;;;;;;;0.00;0.00;;;29.40;56.00;;;;;;5043098;28;20025;-73
2023/09/06 12:25:19;;;;;;;0.00;0.00;;;29.30;55.80;;;;;;5042748;28;20025;-72
2023/09/06 12:27:48;;;;;;;0.00;0.00;;;29.30;57.90;;;;;;5041500;28;20926;-74
2023/09/06 12:30:18;;;;;;;0.00;0.00;;;29.00;53.90;;;;;;5042844;28;20065;-74
2023/09/06 12:32:45;;;;;;;0.00;0.00;;;29.00;55.10;;;;;;5042625;28;20021;-72
2023/09/06 12:35:11;;;;;;;0.00;0.00;;;29.10;55.20;;;;;;5042637;28;20052;-72
2023/09/06 12:37:38;;;;;;;0.43;0.43;;;29.00;55.10;;;;;;5042229;28;20531;-72
2023/09/06 12:40:10;;;;;;;0.00;0.00;;;29.10;54.50;;;;;;5042825;28;20029;-74
2023/09/06 12:42:37;;;;;;;0.30;0.30;;;29.00;54.20;;;;;;5041437;28;20488;-72
2023/09/06 12:45:04;;;;;;;0.00;0.00;;;29.00;53.60;;;;;;5042708;28;20789;-73
2023/09/06 12:47:30;;;;;;;0.00;0.00;;;29.00;53.90;;;;;;5042744;28;20032;-73
2023/09/06 12:49:56;;;;;;;0.00;0.00;;;28.90;54.00;;;;;;5042482;28;20037;-71
2023/09/06 12:52:22;;;;;;;0.00;0.00;;;28.90;55.60;;;;;;5042939;28;20628;-73
2023/09/06 12:54:48;;;;;;;0.00;0.00;;;29.10;54.90;;;;;;5042505;28;20096;-72
2023/09/06 12:57:13;;;;;;;0.00;0.00;;;29.00;55.80;;;;;;5042650;28;20107;-74